createdAt,value
2018-05-16T00:02:18.325Z,59.92
2018-05-16T00:04:46.021Z,60.01
2018-05-16T00:07:13.617Z,60.25
2018-05-16T00:09:41.345Z,60.80
2018-05-16T00:12:08.962Z,61.67
2018-05-16T00:14:36.536Z,62.13
2018-05-16T00:17:04.460Z,62.67
2018-05-16T00:19:32.067Z,63.21
2018-05-16T00:21:59.768Z,63.52
2018-05-16T00:24:27.661Z,63.71
2018-05-16T00:26:55.512Z,64.24
2018-05-16T00:29:23.181Z,64.51
2018-05-16T00:31:50.768Z,64.94
2018-05-16T00:34:18.413Z,65.09
2018-05-16T00:36:46.325Z,65.18
2018-05-16T00:39:13.971Z,65.30
2018-05-16T00:41:41.660Z,65.76
2018-05-16T00:44:09.712Z,65.68
2018-05-16T00:46:37.297Z,65.64
2018-05-16T00:49:05.049Z,65.83
2018-05-16T00:51:32.667Z,66.22
2018-05-16T00:54:00.255Z,66.02
2018-05-16T00:56:27.905Z,65.88
2018-05-16T00:58:55.541Z,65.75
2018-05-16T01:01:23.199Z,65.65
2018-05-16T01:03:50.939Z,65.71
2018-05-16T01:06:18.544Z,65.70
2018-05-16T01:08:46.482Z,65.77
2018-05-16T01:11:14.115Z,65.63
2018-05-16T01:13:41.736Z,65.68
2018-05-16T01:16:09.342Z,65.37
2018-05-16T01:18:37.027Z,65.74
2018-05-16T01:21:04.641Z,65.53
2018-05-16T01:23:32.275Z,65.39
2018-05-16T01:25:59.852Z,65.38
2018-05-16T01:28:27.485Z,65.55
2018-05-16T01:30:55.119Z,65.45
2018-05-16T01:33:23.008Z,65.42
2018-05-16T01:35:50.583Z,65.60
2018-05-16T01:38:18.188Z,65.70
2018-05-16T01:40:45.811Z,65.84
2018-05-16T01:43:13.395Z,66.00
2018-05-16T01:45:40.995Z,66.08
2018-05-16T01:48:08.708Z,66.28
2018-05-16T01:50:36.273Z,66.45
2018-05-16T01:53:03.859Z,66.50
2018-05-16T01:55:31.529Z,66.49
2018-05-16T01:57:59.236Z,66.58
2018-05-16T02:00:26.833Z,66.81
2018-05-16T02:02:54.794Z,66.75
2018-05-16T02:05:22.373Z,66.65
2018-05-16T02:07:50.277Z,66.91
2018-05-16T02:10:17.987Z,67.05
2018-05-16T02:12:45.557Z,67.18
2018-05-16T02:15:13.155Z,67.21
2018-05-16T02:17:40.789Z,67.50
2018-05-16T02:20:08.410Z,67.40
2018-05-16T02:22:36.060Z,67.58
2018-05-16T02:25:03.880Z,67.62
2018-05-16T02:27:31.781Z,67.88
2018-05-16T02:29:59.388Z,67.83
2018-05-16T02:32:26.998Z,68.00
2018-05-16T02:34:54.681Z,67.96
2018-05-16T02:37:22.348Z,68.09
2018-05-16T02:39:49.926Z,67.91
2018-05-16T02:42:17.856Z,68.19
2018-05-16T02:44:45.426Z,68.19
2018-05-16T02:47:13.044Z,68.47
2018-05-16T02:49:40.612Z,68.41
2018-05-16T02:52:08.228Z,68.52
2018-05-16T02:54:35.843Z,68.75
2018-05-16T02:57:03.619Z,68.92
2018-05-16T02:59:31.199Z,69.10
2018-05-16T03:01:59.684Z,69.02
2018-05-16T03:04:27.286Z,69.08
2018-05-16T03:06:54.955Z,69.00
2018-05-16T03:09:22.628Z,69.34
2018-05-16T03:11:50.213Z,69.37
2018-05-16T03:14:18.207Z,69.57
2018-05-16T03:16:45.776Z,69.64
2018-05-16T03:19:13.357Z,69.77
2018-05-16T03:21:40.949Z,69.83
2018-05-16T03:24:08.529Z,69.78
2018-05-16T03:26:36.329Z,69.99
2018-05-16T03:29:03.931Z,70.01
2018-05-16T03:31:31.740Z,70.02
2018-05-16T03:33:59.383Z,70.00
2018-05-16T03:36:27.210Z,70.08
2018-05-16T03:38:54.788Z,70.11
2018-05-16T03:41:22.486Z,70.21
2018-05-16T03:43:50.589Z,70.07
2018-05-16T03:46:18.166Z,70.06
2018-05-16T03:48:45.972Z,70.04
2018-05-16T03:51:13.579Z,70.06
2018-05-16T03:53:41.157Z,70.28
2018-05-16T03:56:08.888Z,70.26
2018-05-16T03:58:48.266Z,70.22
2018-05-16T04:01:27.631Z,70.51
2018-05-16T04:04:05.040Z,70.55
2018-05-16T04:06:32.659Z,70.73
2018-05-16T04:09:00.269Z,71.03
2018-05-16T04:11:27.856Z,70.90
2018-05-16T04:13:55.891Z,71.04
2018-05-16T04:16:23.486Z,71.00
2018-05-16T04:18:51.079Z,71.00
2018-05-16T04:21:19.111Z,71.13
2018-05-16T04:23:46.703Z,71.25
2018-05-16T04:26:14.308Z,71.48
2018-05-16T04:28:42.156Z,71.96
2018-05-16T04:31:10.022Z,72.68
2018-05-16T04:33:37.629Z,73.14
2018-05-16T04:36:05.251Z,73.30
2018-05-16T04:38:32.921Z,73.54
2018-05-16T04:41:01.010Z,73.87
2018-05-16T04:43:29.067Z,74.05
2018-05-16T04:45:57.199Z,74.16
2018-05-16T04:48:25.164Z,74.22
2018-05-16T04:50:53.307Z,74.80
2018-05-16T04:53:20.981Z,75.54
2018-05-16T04:55:48.696Z,75.82
2018-05-16T04:58:16.499Z,75.70
2018-05-16T05:00:44.063Z,75.58
2018-05-16T05:03:11.675Z,75.55
2018-05-16T05:05:39.377Z,75.46
2018-05-16T05:08:06.956Z,75.65
2018-05-16T05:10:34.524Z,75.88
2018-05-16T05:13:02.130Z,75.83
2018-05-16T05:15:29.737Z,75.55
2018-05-16T05:17:57.355Z,75.62
2018-05-16T05:20:25.365Z,75.84
2018-05-16T05:22:52.985Z,76.13
2018-05-16T05:25:20.792Z,76.00
2018-05-16T05:27:48.715Z,76.07
2018-05-16T05:30:16.318Z,75.50
2018-05-16T05:32:46.947Z,75.56
2018-05-16T05:35:14.543Z,75.65
2018-05-16T05:37:42.540Z,75.81
2018-05-16T05:40:10.173Z,75.61
2018-05-16T05:42:37.809Z,75.35
2018-05-16T05:45:05.608Z,75.37
2018-05-16T05:47:33.195Z,75.58
2018-05-16T05:50:00.899Z,75.91
2018-05-16T05:52:28.468Z,75.71
2018-05-16T05:54:56.047Z,76.06
2018-05-16T05:57:24.030Z,76.13
2018-05-16T05:59:51.673Z,76.37
2018-05-16T06:02:19.277Z,76.42
2018-05-16T06:04:46.836Z,76.70
2018-05-16T06:07:14.793Z,76.18
2018-05-16T06:09:42.373Z,76.20
2018-05-16T06:12:10.486Z,76.18
2018-05-16T06:14:38.288Z,76.21
2018-05-16T06:17:06.176Z,76.21
2018-05-16T06:19:34.219Z,76.09
2018-05-16T06:22:01.788Z,76.08
2018-05-16T06:24:29.388Z,75.93
2018-05-16T06:26:57.243Z,75.82
2018-05-16T06:29:24.928Z,75.90
2018-05-16T06:31:52.520Z,75.87
2018-05-16T06:34:20.079Z,75.80
2018-05-16T06:36:47.693Z,75.63
2018-05-16T06:39:15.341Z,75.56
2018-05-16T06:41:42.983Z,75.46
2018-05-16T06:44:10.641Z,75.58
2018-05-16T06:46:38.218Z,76.09
2018-05-16T06:49:05.840Z,75.83
2018-05-16T06:51:33.425Z,76.30
2018-05-16T06:54:01.065Z,76.45
2018-05-16T06:56:28.748Z,75.33
2018-05-16T06:58:56.262Z,75.38
2018-05-16T07:01:23.885Z,75.57
2018-05-16T07:03:51.462Z,75.65
2018-05-16T07:06:19.025Z,75.49
2018-05-16T07:08:46.850Z,74.68
2018-05-16T07:11:14.417Z,74.52
2018-05-16T07:13:42.215Z,74.17
2018-05-16T07:16:09.785Z,74.55
2018-05-16T07:18:37.355Z,74.69
2018-05-16T07:21:05.365Z,74.78
2018-05-16T07:23:32.941Z,75.16
2018-05-16T07:26:00.499Z,75.56
2018-05-16T07:28:28.331Z,75.54
2018-05-16T07:30:55.916Z,75.47
2018-05-16T07:33:23.560Z,75.71
2018-05-16T07:35:51.253Z,76.14
2018-05-16T07:38:18.825Z,76.00
2018-05-16T07:40:46.401Z,75.82
2018-05-16T07:43:14.006Z,75.76
2018-05-16T07:45:41.809Z,75.66
2018-05-16T07:48:09.511Z,75.73
2018-05-16T07:50:37.083Z,75.03
2018-05-16T07:53:04.656Z,74.73
2018-05-16T07:55:32.243Z,75.18
2018-05-16T07:57:59.805Z,75.91
2018-05-16T08:00:27.493Z,75.40
2018-05-16T08:02:55.052Z,75.29
2018-05-16T08:05:23.098Z,75.59
2018-05-16T08:07:50.683Z,75.71
2018-05-16T08:10:18.504Z,76.25
2018-05-16T08:12:46.241Z,76.34
2018-05-16T08:15:13.820Z,76.36
2018-05-16T08:17:41.694Z,76.32
2018-05-16T08:20:09.418Z,76.24
2018-05-16T08:22:37.064Z,75.91
2018-05-16T08:25:04.633Z,76.61
2018-05-16T08:27:32.305Z,76.44
2018-05-16T08:30:00.134Z,75.00
2018-05-16T08:32:27.727Z,74.96
2018-05-16T08:34:55.668Z,73.86
2018-05-16T08:37:23.344Z,73.52
2018-05-16T08:39:50.913Z,72.31
2018-05-16T08:42:18.637Z,70.85
2018-05-16T08:44:46.211Z,71.29
2018-05-16T08:47:13.871Z,70.78
2018-05-16T08:49:41.481Z,71.08
2018-05-16T08:52:09.063Z,71.35
2018-05-16T08:54:36.674Z,70.56
2018-05-16T08:57:04.301Z,70.40
2018-05-16T08:59:32.105Z,69.88
2018-05-16T09:01:59.724Z,69.89
2018-05-16T09:04:27.550Z,69.28
2018-05-16T09:06:55.149Z,68.48
2018-05-16T09:09:22.756Z,68.24
2018-05-16T09:11:50.368Z,68.16
2018-05-16T09:14:17.945Z,67.00
2018-05-16T09:16:45.983Z,67.67
2018-05-16T09:19:13.561Z,65.11
2018-05-16T09:21:41.360Z,62.79
2018-05-16T09:24:09.023Z,62.27
2018-05-16T09:26:36.596Z,61.86
2018-05-16T09:29:04.462Z,61.31
2018-05-16T09:31:32.022Z,61.10
2018-05-16T09:33:59.588Z,58.97
2018-05-16T09:36:27.179Z,57.79
2018-05-16T09:38:55.057Z,57.19
2018-05-16T09:41:23.009Z,55.20
2018-05-16T09:43:50.668Z,55.22
2018-05-16T09:46:18.278Z,54.06
2018-05-16T09:48:46.147Z,53.70
2018-05-16T09:51:14.173Z,55.23
2018-05-16T09:53:42.072Z,55.83
2018-05-16T09:56:09.709Z,55.75
2018-05-16T09:58:37.290Z,55.50
2018-05-16T10:01:04.869Z,56.78
2018-05-16T10:03:32.740Z,55.63
2018-05-16T10:06:00.295Z,56.02
2018-05-16T10:08:27.943Z,54.06
2018-05-16T10:10:55.543Z,54.36
2018-05-16T10:13:23.343Z,53.81
2018-05-16T10:15:51.313Z,54.65
2018-05-16T10:18:18.959Z,53.54
2018-05-16T10:20:46.596Z,53.49
2018-05-16T10:23:14.177Z,52.82
2018-05-16T10:25:42.097Z,52.00
2018-05-16T10:28:09.712Z,50.94
2018-05-16T10:30:37.294Z,50.17
2018-05-16T10:33:04.897Z,51.57
2018-05-16T10:35:32.794Z,51.67
2018-05-16T10:38:00.729Z,51.63
2018-05-16T10:40:28.307Z,52.89
2018-05-16T10:42:55.879Z,51.00
2018-05-16T10:45:23.871Z,51.15
2018-05-16T10:47:51.990Z,52.65
2018-05-16T10:50:19.578Z,53.67
2018-05-16T10:52:47.245Z,53.05
2018-05-16T10:55:14.804Z,53.08
2018-05-16T10:57:42.434Z,55.68
2018-05-16T11:00:10.010Z,56.07
2018-05-16T11:02:37.717Z,55.47
2018-05-16T11:05:05.288Z,54.92
2018-05-16T11:07:32.855Z,56.24
2018-05-16T11:10:00.459Z,56.31
2018-05-16T11:12:28.057Z,56.81
2018-05-16T11:14:55.648Z,57.62
2018-05-16T11:17:23.322Z,58.14
2018-05-16T11:19:50.891Z,57.33
2018-05-16T11:22:19.772Z,57.66
2018-05-16T11:24:47.349Z,58.12
2018-05-16T11:27:14.923Z,57.67
2018-05-16T11:29:42.621Z,56.58
2018-05-16T11:32:10.216Z,56.57
2018-05-16T11:34:37.784Z,56.91
2018-05-16T11:37:05.632Z,55.99
2018-05-16T11:39:33.235Z,56.04
2018-05-16T11:42:00.807Z,56.35
2018-05-16T11:44:28.736Z,55.97
2018-05-16T11:46:56.677Z,54.51
2018-05-16T11:49:24.390Z,55.29
2018-05-16T11:51:51.965Z,55.48
2018-05-16T11:54:19.561Z,54.92
2018-05-16T11:56:47.134Z,55.70
2018-05-16T11:59:14.862Z,57.09
2018-05-16T12:01:42.604Z,56.04
2018-05-16T12:04:10.172Z,55.80
2018-05-16T12:06:37.889Z,56.56
2018-05-16T12:09:06.303Z,56.77
2018-05-16T12:11:34.119Z,57.72
2018-05-16T12:14:01.813Z,56.85
2018-05-16T12:16:29.432Z,55.95
2018-05-16T12:18:57.034Z,56.74
2018-05-16T12:21:24.606Z,57.83
2018-05-16T12:23:52.606Z,58.15
2018-05-16T12:26:20.403Z,58.85
2018-05-16T12:28:48.039Z,59.16
2018-05-16T12:31:15.850Z,59.40
2018-05-16T12:33:43.489Z,60.62
2018-05-16T12:36:11.043Z,59.73
2018-05-16T12:38:38.623Z,59.70
2018-05-16T12:41:06.207Z,58.70
2018-05-16T12:43:33.790Z,59.15
2018-05-16T12:46:01.408Z,59.60
2018-05-16T12:48:29.026Z,60.17
2018-05-16T12:50:56.909Z,61.00
2018-05-16T12:53:24.573Z,61.36
2018-05-16T12:55:52.161Z,61.65
2018-05-16T12:58:20.296Z,62.40
2018-05-16T13:00:47.870Z,62.48
2018-05-16T13:03:15.506Z,63.49
2018-05-16T13:05:43.098Z,63.75
2018-05-16T13:08:10.742Z,64.88
2018-05-16T13:10:38.567Z,64.37
2018-05-16T13:13:06.191Z,64.89
2018-05-16T13:15:33.860Z,64.74
2018-05-16T13:18:01.755Z,64.18
2018-05-16T13:20:29.536Z,64.45
2018-05-16T13:22:57.471Z,64.21
2018-05-16T13:25:25.050Z,63.02
2018-05-16T13:27:52.862Z,62.76
2018-05-16T13:30:20.453Z,61.19
2018-05-16T13:32:48.027Z,61.83
2018-05-16T13:35:15.684Z,61.25
2018-05-16T13:37:43.253Z,61.99
2018-05-16T13:40:10.853Z,61.35
2018-05-16T13:42:38.883Z,61.58
2018-05-16T13:45:06.448Z,59.65
2018-05-16T13:47:34.315Z,57.96
2018-05-16T13:50:02.143Z,58.83
2018-05-16T13:52:29.941Z,55.76
2018-05-16T13:54:57.643Z,55.76
2018-05-16T13:57:25.448Z,55.41
2018-05-16T13:59:53.012Z,54.32
2018-05-16T14:02:20.626Z,54.25
2018-05-16T14:04:48.189Z,53.67
2018-05-16T14:07:15.762Z,53.54
2018-05-16T14:09:43.848Z,54.48
2018-05-16T14:12:11.650Z,52.27
2018-05-16T14:14:39.220Z,53.39
2018-05-16T14:17:07.056Z,52.74
2018-05-16T14:19:34.588Z,52.70
2018-05-16T14:22:02.151Z,53.51
2018-05-16T14:24:29.737Z,53.31
2018-05-16T14:26:57.297Z,53.04
2018-05-16T14:29:25.206Z,53.48
2018-05-16T14:31:52.799Z,54.62
2018-05-16T14:34:20.443Z,53.66
2018-05-16T14:36:48.070Z,53.41
2018-05-16T14:39:15.908Z,52.02
2018-05-16T14:41:43.474Z,52.52
2018-05-16T14:44:11.102Z,52.67
2018-05-16T14:46:38.662Z,53.00
2018-05-16T14:49:06.221Z,54.65
2018-05-16T14:51:33.809Z,54.67
2018-05-16T14:54:01.378Z,54.35
2018-05-16T14:56:29.078Z,54.22
2018-05-16T14:58:56.640Z,54.69
2018-05-16T15:01:24.207Z,55.37
2018-05-16T15:03:51.821Z,56.33
2018-05-16T15:06:19.405Z,57.05
2018-05-16T15:08:47.115Z,57.51
2018-05-16T15:11:15.727Z,56.10
2018-05-16T15:13:43.538Z,53.84
2018-05-16T15:16:11.264Z,54.80
2018-05-16T15:18:38.891Z,55.60
2018-05-16T15:21:06.815Z,56.20
2018-05-16T15:23:35.102Z,56.72
2018-05-16T15:26:02.672Z,57.59
2018-05-16T15:28:30.323Z,57.35
2018-05-16T15:30:57.927Z,58.16
2018-05-16T15:33:25.493Z,58.01
2018-05-16T15:35:53.183Z,58.41
2018-05-16T15:38:20.858Z,58.48
2018-05-16T15:40:48.371Z,59.00
2018-05-16T15:43:15.964Z,57.99
2018-05-16T15:45:43.769Z,58.50
2018-05-16T15:48:11.416Z,58.51
2018-05-16T15:50:38.980Z,58.46
2018-05-16T15:53:06.598Z,59.32
2018-05-16T15:55:34.168Z,59.56
2018-05-16T15:58:01.743Z,58.48
2018-05-16T16:00:29.618Z,57.11
2018-05-16T16:02:57.187Z,57.82
2018-05-16T16:05:24.777Z,58.50
2018-05-16T16:07:52.408Z,58.77
2018-05-16T16:10:20.062Z,59.24
2018-05-16T16:12:47.681Z,58.77
2018-05-16T16:15:15.341Z,59.23
2018-05-16T16:17:43.163Z,59.49
2018-05-16T16:20:10.754Z,60.29
2018-05-16T16:22:38.363Z,60.61
2018-05-16T16:25:05.926Z,61.70
2018-05-16T16:27:33.488Z,62.58
2018-05-16T16:30:01.078Z,62.66
2018-05-16T16:32:28.697Z,63.58
2018-05-16T16:34:56.361Z,63.91
2018-05-16T16:37:23.927Z,63.46
2018-05-16T16:39:51.548Z,63.38
2018-05-16T16:42:19.879Z,62.47
2018-05-16T16:44:47.863Z,62.48
2018-05-16T16:47:15.335Z,63.55
2018-05-16T16:49:42.936Z,64.70
2018-05-16T16:52:10.560Z,65.35
2018-05-16T16:54:38.220Z,65.10
2018-05-16T16:57:05.811Z,65.01
2018-05-16T16:59:33.440Z,65.51
2018-05-16T17:02:01.107Z,66.57
2018-05-16T17:04:29.344Z,66.41
2018-05-16T17:06:56.931Z,66.29
2018-05-16T17:09:24.982Z,67.33
2018-05-16T17:11:52.584Z,67.23
2018-05-16T17:14:20.252Z,66.93
2018-05-16T17:16:47.909Z,66.67
2018-05-16T17:19:15.657Z,66.96
2018-05-16T17:21:43.375Z,67.84
2018-05-16T17:24:11.173Z,68.02
2018-05-16T17:26:38.857Z,68.53
2018-05-16T17:29:06.527Z,68.75
2018-05-16T17:31:34.320Z,69.11
2018-05-16T17:34:02.508Z,69.54
2018-05-16T17:36:30.398Z,70.18
2018-05-16T17:38:57.980Z,69.62
2018-05-16T17:41:25.576Z,69.20
2018-05-16T17:43:53.181Z,69.73
2018-05-16T17:46:20.924Z,69.37
2018-05-16T17:48:48.486Z,69.81
2018-05-16T17:51:16.112Z,70.06
2018-05-16T17:53:43.712Z,69.96
2018-05-16T17:56:11.302Z,69.75
2018-05-16T17:58:38.888Z,69.59
2018-05-16T18:01:06.506Z,70.36
2018-05-16T18:03:34.065Z,70.02
2018-05-16T18:06:01.661Z,69.93
2018-05-16T18:08:30.008Z,70.12
2018-05-16T18:10:57.653Z,70.13
2018-05-16T18:16:49.214Z,70.51
2018-05-16T18:19:16.860Z,69.63
2018-05-16T18:21:44.454Z,69.77
2018-05-16T18:24:12.153Z,69.07
2018-05-16T18:26:39.779Z,69.46
2018-05-16T18:29:07.344Z,69.49
2018-05-16T18:31:34.992Z,69.26
2018-05-16T18:34:02.548Z,69.54
2018-05-16T18:36:30.351Z,69.43
2018-05-16T18:38:58.476Z,69.10
2018-05-16T18:41:26.042Z,69.38
2018-05-16T18:43:53.609Z,69.99
2018-05-16T18:46:21.248Z,70.00
2018-05-16T18:48:48.841Z,70.03
2018-05-16T18:51:16.460Z,69.88
2018-05-16T18:53:44.203Z,69.69
2018-05-16T18:56:11.765Z,69.97
2018-05-16T18:58:39.348Z,69.93
2018-05-16T19:01:06.942Z,70.52
2018-05-16T19:03:34.531Z,70.24
2018-05-16T19:06:02.171Z,70.12
2018-05-16T19:08:29.999Z,70.04
2018-05-16T19:10:57.631Z,69.37
2018-05-16T19:13:25.214Z,69.12
2018-05-16T19:15:52.921Z,69.86
2018-05-16T19:18:20.545Z,68.90
2018-05-16T19:20:48.116Z,68.97
2018-05-16T19:23:15.822Z,69.22
2018-05-16T19:25:43.379Z,68.99
2018-05-16T19:28:11.318Z,69.16
2018-05-16T19:30:38.907Z,69.04
2018-05-16T19:33:06.848Z,69.14
2018-05-16T19:35:34.416Z,69.55
2018-05-16T19:38:02.015Z,69.83
2018-05-16T19:40:29.961Z,69.21
2018-05-16T19:42:57.764Z,68.83
2018-05-16T19:45:25.479Z,68.66
2018-05-16T19:47:53.279Z,69.05
2018-05-16T19:50:20.841Z,69.36
2018-05-16T19:52:48.549Z,68.96
2018-05-16T19:55:16.346Z,69.10
2018-05-16T19:57:44.140Z,68.80
2018-05-16T20:00:11.847Z,68.79
2018-05-16T20:02:39.448Z,68.91
2018-05-16T20:05:07.091Z,68.89
2018-05-16T20:07:35.015Z,69.17
2018-05-16T20:10:03.009Z,69.11
2018-05-16T20:12:30.697Z,69.06
2018-05-16T20:14:58.300Z,68.83
2018-05-16T20:17:25.898Z,69.09
2018-05-16T20:19:53.489Z,69.53
2018-05-16T20:22:21.331Z,69.92
2018-05-16T20:24:49.136Z,70.24
2018-05-16T20:27:17.055Z,70.40
2018-05-16T20:29:44.646Z,70.92
2018-05-16T20:32:12.255Z,71.16
2018-05-16T20:34:40.099Z,71.68
2018-05-16T20:37:07.703Z,71.99
2018-05-16T20:39:35.330Z,72.32
2018-05-16T20:42:03.240Z,72.76
2018-05-16T20:44:30.903Z,72.83
2018-05-16T20:46:58.535Z,73.09
2018-05-16T20:49:27.384Z,73.45
2018-05-16T20:51:54.987Z,73.69
2018-05-16T20:54:22.710Z,73.98
2018-05-16T20:56:50.281Z,73.78
2018-05-16T20:59:17.919Z,73.65
2018-05-16T21:01:45.544Z,73.58
2018-05-16T21:04:13.163Z,73.76
2018-05-16T21:06:40.787Z,73.78
2018-05-16T21:09:08.414Z,74.19
2018-05-16T21:11:35.990Z,74.22
2018-05-16T21:14:03.829Z,74.45
2018-05-16T21:16:31.461Z,74.28
2018-05-16T21:18:59.112Z,74.02
2018-05-16T21:21:26.696Z,74.18
2018-05-16T21:23:54.690Z,74.17
2018-05-16T21:26:22.284Z,74.16
2018-05-16T21:28:50.102Z,74.22
2018-05-16T21:31:18.337Z,74.54
2018-05-16T21:33:45.944Z,74.54
2018-05-16T21:36:13.518Z,74.63
2018-05-16T21:38:41.251Z,74.59
2018-05-16T21:41:08.833Z,74.89
2018-05-16T21:43:36.439Z,74.96
2018-05-16T21:46:04.406Z,75.02
2018-05-16T21:48:31.975Z,75.30
2018-05-16T21:50:59.738Z,75.43
2018-05-16T21:53:27.407Z,75.81
2018-05-16T21:55:55.171Z,75.59
2018-05-16T21:58:22.979Z,75.82
2018-05-16T22:00:50.558Z,76.06
2018-05-16T22:03:18.158Z,76.43
2018-05-16T22:05:46.106Z,76.60
2018-05-16T22:08:13.905Z,76.49
2018-05-16T22:10:41.786Z,76.57
2018-05-16T22:13:09.674Z,76.97
2018-05-16T22:15:37.383Z,77.09
2018-05-16T22:18:05.192Z,77.55
2018-05-16T22:20:33.026Z,77.92
2018-05-16T22:23:01.039Z,77.94
2018-05-16T22:25:28.632Z,78.14
2018-05-16T22:27:56.267Z,78.29
2018-05-16T22:30:29.920Z,78.09
2018-05-16T22:33:03.061Z,78.22
2018-05-16T22:35:36.230Z,78.12
2018-05-16T22:38:09.219Z,78.49
2018-05-16T22:40:42.356Z,78.18
2018-05-16T22:43:09.403Z,78.22
2018-05-16T22:45:39.390Z,78.41
2018-05-16T22:48:07.044Z,78.60
2018-05-16T22:50:34.658Z,78.61
2018-05-16T22:53:02.286Z,78.54
2018-05-16T22:55:29.985Z,78.37
2018-05-16T22:57:57.570Z,78.15
2018-05-16T23:00:25.251Z,78.22
2018-05-16T23:02:53.169Z,78.16
2018-05-16T23:05:21.198Z,78.25
2018-05-16T23:07:48.772Z,78.17
2018-05-16T23:10:16.334Z,78.24
2018-05-16T23:12:43.920Z,78.23
2018-05-16T23:15:11.523Z,78.32
2018-05-16T23:17:39.112Z,78.22
2018-05-16T23:22:33.774Z,78.13
2018-05-16T23:25:01.560Z,77.89
2018-05-16T23:27:29.128Z,77.56
2018-05-16T23:29:56.706Z,77.75
2018-05-16T23:32:24.302Z,77.80
2018-05-16T23:34:52.012Z,77.37
2018-05-16T23:37:19.572Z,77.62
2018-05-16T23:39:47.148Z,77.76
2018-05-16T23:42:14.838Z,78.02
2018-05-16T23:44:42.429Z,78.08
2018-05-16T23:47:09.999Z,78.08
2018-05-16T23:49:37.602Z,78.04
2018-05-16T23:52:05.448Z,78.08
2018-05-16T23:54:33.373Z,78.27
2018-05-16T23:57:00.952Z,78.14
2018-05-16T23:59:28.540Z,77.81
